Time;durP1;ratioP1;P1;durP2;ratioP2;P2;SDS_P1;SDS_P2;PMS_P1;PMS_P2;Temp;Humidity;BMP_temperature;BMP_pressure;BME280_temperature;BME280_humidity;BME280_pressure;Samples;Min_cycle;Max_cycle;Signal;HPM_P1;HPM_P2
2022/05/29 00:01:21;;;;;;;9.40;2.25;;;10.00;99.90;;;;;;5052358;28;20040;-49
2022/05/29 00:03:49;;;;;;;5.90;2.03;;;9.90;99.90;;;;;;5070184;28;20040;-48
2022/05/29 00:06:15;;;;;;;8.13;2.13;;;9.90;99.90;;;;;;5070329;28;20036;-47
2022/05/29 00:08:43;;;;;;;8.07;2.13;;;9.90;99.90;;;;;;5070176;28;20041;-48
2022/05/29 00:11:13;;;;;;;7.07;2.00;;;9.80;99.90;;;;;;5070365;28;20376;-47
2022/05/29 00:13:39;;;;;;;5.10;1.90;;;9.90;99.90;;;;;;5070017;28;20044;-48
2022/05/29 00:16:05;;;;;;;7.13;1.95;;;9.80;99.90;;;;;;5070438;28;20040;-47
2022/05/29 00:18:31;;;;;;;8.25;1.90;;;9.80;99.90;;;;;;5070242;28;20797;-46
2022/05/29 00:20:59;;;;;;;8.70;2.10;;;9.90;99.90;;;;;;5070361;28;20045;-45
2022/05/29 00:23:27;;;;;;;5.22;1.70;;;9.80;99.90;;;;;;5070453;28;20055;-46
2022/05/29 00:25:54;;;;;;;5.95;2.10;;;9.90;99.90;;;;;;5070113;28;20043;-46
2022/05/29 00:28:20;;;;;;;9.00;2.25;;;9.90;99.90;;;;;;5052469;28;20062;-46
2022/05/29 00:30:46;;;;;;;7.68;1.92;;;10.00;99.90;;;;;;5069959;28;20037;-47
2022/05/29 00:33:12;;;;;;;7.97;2.13;;;10.00;99.90;;;;;;5061882;28;20043;-47
2022/05/29 00:35:39;;;;;;;7.55;2.45;;;9.90;99.90;;;;;;5066836;28;20066;-47
2022/05/29 00:38:06;;;;;;;6.40;2.25;;;10.00;99.90;;;;;;5070030;28;20025;-50
2022/05/29 00:40:57;;;;;;;6.78;2.28;;;10.00;99.90;;;;;;5068588;28;20037;-46
2022/05/29 00:43:23;;;;;;;11.18;2.35;;;10.00;99.90;;;;;;5068355;28;20048;-46
2022/05/29 00:46:00;;;;;;;9.27;2.58;;;10.00;99.90;;;;;;5069116;28;20045;-47
2022/05/29 00:48:27;;;;;;;10.15;2.58;;;10.00;99.90;;;;;;5069319;28;20132;-47
2022/05/29 00:50:59;;;;;;;8.60;2.33;;;10.10;99.90;;;;;;5070572;28;20040;-48
2022/05/29 00:53:27;;;;;;;8.38;2.65;;;10.00;99.90;;;;;;5070570;28;20495;-46
2022/05/29 00:56:05;;;;;;;9.40;2.55;;;9.90;99.90;;;;;;5070461;28;20442;-48
2022/05/29 00:58:31;;;;;;;9.68;2.78;;;10.00;99.90;;;;;;5070660;28;20044;-51
2022/05/29 01:00:57;;;;;;;7.20;2.40;;;10.00;99.90;;;;;;5052278;28;20064;-46
2022/05/29 01:03:23;;;;;;;9.88;2.72;;;9.90;99.90;;;;;;5073780;28;20123;-46
2022/05/29 01:05:49;;;;;;;10.07;2.75;;;10.00;99.90;;;;;;5073757;28;20500;-46
2022/05/29 01:08:20;;;;;;;11.05;2.85;;;10.10;99.90;;;;;;5073964;28;20116;-48
2022/05/29 01:10:49;;;;;;;10.07;2.65;;;10.00;99.90;;;;;;5074011;28;20330;-46
2022/05/29 01:13:21;;;;;;;12.77;2.80;;;10.00;99.90;;;;;;5055720;28;20057;-48
2022/05/29 01:16:30;;;;;;;9.57;2.70;;;10.10;99.90;;;;;;5074267;28;20048;-47
2022/05/29 01:19:33;;;;;;;11.07;2.65;;;10.00;99.90;;;;;;5056076;28;20468;-47
2022/05/29 01:22:30;;;;;;;9.75;3.13;;;10.10;99.90;;;;;;5074052;28;20036;-46
2022/05/29 01:25:11;;;;;;;9.13;2.60;;;10.00;99.90;;;;;;5035054;28;20094;-47
2022/05/29 01:28:01;;;;;;;16.13;3.33;;;10.00;99.90;;;;;;5073895;28;20166;-47
2022/05/29 01:30:31;;;;;;;12.63;3.15;;;10.10;99.90;;;;;;5073551;28;20137;-47
2022/05/29 01:33:30;;;;;;;10.65;2.90;;;10.10;99.90;;;;;;5073877;28;20048;-47
2022/05/29 01:36:20;;;;;;;12.48;3.05;;;9.90;99.90;;;;;;5073084;28;20036;-47
2022/05/29 01:38:58;;;;;;;9.88;2.90;;;10.00;99.90;;;;;;5073704;28;20028;-49
2022/05/29 01:41:35;;;;;;;12.48;2.97;;;9.70;99.90;;;;;;5073723;28;20047;-47
2022/05/29 01:44:10;;;;;;;12.13;2.97;;;9.70;99.90;;;;;;5074088;28;20524;-47
2022/05/29 01:46:36;;;;;;;11.90;3.00;;;9.70;99.90;;;;;;5073604;28;20076;-47
2022/05/29 01:49:36;;;;;;;11.27;3.53;;;9.70;99.90;;;;;;5073262;28;20107;-47
2022/05/29 01:52:14;;;;;;;8.02;2.85;;;9.70;99.90;;;;;;5054809;28;20107;-46
2022/05/29 01:54:59;;;;;;;14.38;3.40;;;9.50;99.90;;;;;;5073301;28;20048;-48
2022/05/29 01:57:36;;;;;;;15.05;3.03;;;9.60;99.90;;;;;;5073494;28;20047;-46
2022/05/29 02:00:05;;;;;;;9.73;2.97;;;9.70;99.90;;;;;;5073525;28;20374;-45
2022/05/29 02:02:36;;;;;;;15.45;3.17;;;9.70;99.90;;;;;;5073373;28;20090;-49
2022/05/29 02:05:08;;;;;;;14.82;3.20;;;9.60;99.90;;;;;;5073295;28;20041;-47
2022/05/29 02:07:48;;;;;;;10.00;3.40;;;9.60;99.90;;;;;;5073198;28;20608;-45
2022/05/29 02:10:29;;;;;;;12.30;3.05;;;9.80;99.90;;;;;;5055563;28;20042;-48
2022/05/29 02:13:11;;;;;;;15.25;3.30;;;9.70;99.90;;;;;;5072268;28;20165;-47
2022/05/29 02:15:46;;;;;;;11.73;2.95;;;9.60;99.90;;;;;;5073045;28;20045;-47
2022/05/29 02:18:34;;;;;;;10.77;2.92;;;9.70;99.90;;;;;;5072656;28;20068;-48
2022/05/29 02:21:04;;;;;;;10.50;2.75;;;9.70;99.90;;;;;;5073063;28;20036;-46
2022/05/29 02:23:38;;;;;;;9.38;3.00;;;9.60;99.90;;;;;;5073337;28;20390;-48
2022/05/29 02:26:07;;;;;;;12.15;2.72;;;9.70;99.90;;;;;;5073050;28;20115;-48
2022/05/29 02:28:36;;;;;;;13.85;3.55;;;9.70;99.90;;;;;;5072948;28;20111;-49
2022/05/29 02:31:02;;;;;;;16.98;2.95;;;9.70;99.90;;;;;;5072333;28;20039;-47
2022/05/29 02:33:50;;;;;;;9.55;2.47;;;9.80;99.90;;;;;;5072742;28;20036;-45
2022/05/29 02:36:24;;;;;;;7.63;2.75;;;9.70;99.90;;;;;;5072525;28;20044;-46
2022/05/29 02:39:12;;;;;;;10.60;3.05;;;9.80;99.90;;;;;;5072581;28;20037;-46
2022/05/29 02:41:40;;;;;;;10.13;2.83;;;9.70;99.90;;;;;;5072877;28;20033;-46
2022/05/29 02:44:33;;;;;;;15.90;3.20;;;9.70;99.90;;;;;;5072603;28;20041;-47
2022/05/29 02:47:20;;;;;;;9.43;3.10;;;9.80;99.90;;;;;;5072670;28;20437;-48
2022/05/29 02:50:03;;;;;;;14.70;2.55;;;9.70;99.90;;;;;;5072634;28;20103;-49
2022/05/29 02:52:28;;;;;;;10.38;2.80;;;9.80;99.90;;;;;;5072037;28;20047;-45
2022/05/29 02:54:56;;;;;;;11.73;3.38;;;9.70;99.90;;;;;;5071534;28;20025;-46
2022/05/29 02:57:22;;;;;;;10.95;3.35;;;9.80;99.90;;;;;;5072054;28;20552;-49
2022/05/29 02:59:53;;;;;;;8.45;2.72;;;9.60;99.90;;;;;;5072263;28;20040;-47
2022/05/29 03:02:31;;;;;;;11.93;3.20;;;9.70;99.90;;;;;;5072139;28;20476;-46
2022/05/29 03:05:16;;;;;;;10.85;2.90;;;9.70;99.90;;;;;;5072163;28;20048;-48
2022/05/29 03:08:01;;;;;;;10.38;2.90;;;9.60;99.90;;;;;;5072171;28;20064;-47
2022/05/29 03:10:32;;;;;;;;;;;9.50;99.90;;;;;;5072465;28;21212;-48
2022/05/29 03:13:13;;;;;;;13.00;3.35;;;9.50;99.90;;;;;;5071531;28;19955;-48
2022/05/29 03:15:56;;;;;;;12.40;3.50;;;9.50;99.90;;;;;;5064872;28;20054;-49
2022/05/29 03:18:40;;;;;;;11.17;3.00;;;9.50;99.90;;;;;;5062797;28;20493;-46
2022/05/29 03:21:05;;;;;;;11.35;3.33;;;9.50;99.90;;;;;;5049122;28;20049;-46
2022/05/29 03:23:57;;;;;;;11.38;3.33;;;9.50;99.90;;;;;;5067757;28;20036;-46
2022/05/29 03:27:00;;;;;;;11.30;3.55;;;9.50;99.90;;;;;;5063745;28;20048;-46
2022/05/29 03:29:35;;;;;;;9.52;2.67;;;9.70;99.90;;;;;;5063282;28;20056;-48
2022/05/29 03:32:03;;;;;;;14.90;4.00;;;9.50;99.90;;;;;;5063576;28;20382;-46
2022/05/29 03:34:29;;;;;;;11.82;3.25;;;9.50;99.90;;;;;;5061552;28;20487;-46
2022/05/29 03:36:54;;;;;;;12.98;2.97;;;9.40;99.90;;;;;;5067425;28;20141;-46
2022/05/29 03:39:20;;;;;;;9.85;3.00;;;9.40;99.90;;;;;;5064885;28;20166;-45
2022/05/29 03:41:52;;;;;;;8.93;2.70;;;9.50;99.90;;;;;;5063339;28;20044;-47
2022/05/29 03:44:20;;;;;;;13.25;3.22;;;9.50;99.90;;;;;;5070853;28;20032;-46
2022/05/29 03:46:46;;;;;;;10.32;2.95;;;9.50;99.90;;;;;;5071093;28;20044;-46
2022/05/29 03:49:14;;;;;;;11.25;2.90;;;9.50;99.90;;;;;;5071465;28;20033;-48
2022/05/29 03:51:40;;;;;;;13.32;3.50;;;9.50;99.90;;;;;;5052880;28;20101;-46
2022/05/29 03:54:07;;;;;;;12.52;3.28;;;9.40;99.90;;;;;;5070945;28;20032;-47
2022/05/29 03:56:33;;;;;;;12.95;3.20;;;9.40;99.90;;;;;;5070946;28;20123;-49
2022/05/29 03:58:59;;;;;;;11.10;2.85;;;9.50;99.90;;;;;;5052946;28;20120;-48
2022/05/29 04:01:25;;;;;;;10.25;3.35;;;9.50;99.90;;;;;;5071173;28;20029;-46
2022/05/29 04:03:53;;;;;;;9.98;2.88;;;9.50;99.90;;;;;;5070779;28;20089;-46
2022/05/29 04:06:20;;;;;;;9.93;3.33;;;9.50;99.90;;;;;;5052541;28;20098;-47
2022/05/29 04:14:14;;;;;;;10.85;3.17;;;9.40;99.90;;;;;;5069289;28;20048;-45
2022/05/29 04:16:40;;;;;;;14.15;3.33;;;9.50;99.90;;;;;;5070198;28;20032;-48
2022/05/29 04:19:06;;;;;;;8.98;3.20;;;9.40;99.90;;;;;;5068806;28;20082;-47
2022/05/29 04:21:32;;;;;;;12.05;4.00;;;9.50;99.90;;;;;;5051032;28;20109;-48
2022/05/29 04:23:58;;;;;;;13.05;3.10;;;9.50;99.90;;;;;;5070649;28;20093;-46
2022/05/29 04:26:24;;;;;;;12.25;3.50;;;9.40;99.90;;;;;;5052761;28;20036;-48
2022/05/29 04:28:50;;;;;;;11.23;3.47;;;9.40;99.90;;;;;;5070760;28;20041;-47
2022/05/29 04:31:15;;;;;;;10.43;3.60;;;9.50;99.90;;;;;;5070871;28;20383;-48
2022/05/29 04:33:41;;;;;;;13.98;3.22;;;9.50;99.90;;;;;;5070441;28;20082;-47
2022/05/29 04:36:07;;;;;;;11.65;3.22;;;9.50;99.90;;;;;;5070354;28;20503;-47
2022/05/29 04:38:33;;;;;;;10.07;3.45;;;9.50;99.90;;;;;;5070193;28;20036;-48
2022/05/29 04:41:03;;;;;;;13.90;3.15;;;9.50;99.90;;;;;;5070734;28;20075;-50
2022/05/29 04:43:29;;;;;;;14.82;3.03;;;9.60;99.90;;;;;;5070667;28;20037;-48
2022/05/29 04:45:56;;;;;;;13.02;3.72;;;9.50;99.90;;;;;;5070674;28;20417;-46
2022/05/29 04:48:23;;;;;;;14.70;3.35;;;9.70;99.90;;;;;;5070691;28;20045;-47
2022/05/29 04:51:05;;;;;;;12.25;3.50;;;9.60;99.90;;;;;;5070660;28;20055;-46
2022/05/29 04:53:31;;;;;;;16.10;3.33;;;9.60;99.90;;;;;;5070041;28;20479;-47
2022/05/29 04:55:59;;;;;;;14.63;3.35;;;9.60;99.90;;;;;;5068780;28;20036;-47
2022/05/29 04:58:27;;;;;;;10.18;2.95;;;9.70;99.90;;;;;;5070438;28;20388;-46
2022/05/29 05:01:02;;;;;;;12.75;3.28;;;9.70;99.90;;;;;;5069252;28;20036;-46
2022/05/29 05:03:29;;;;;;;12.52;3.30;;;9.80;99.90;;;;;;5051984;28;20048;-48
2022/05/29 05:05:55;;;;;;;12.60;3.58;;;9.80;99.90;;;;;;5070020;28;20487;-46
2022/05/29 05:08:21;;;;;;;14.43;3.15;;;9.70;99.90;;;;;;5070244;28;20037;-48
2022/05/29 05:10:46;;;;;;;15.60;3.45;;;9.70;99.90;;;;;;5070477;28;20071;-46
2022/05/29 05:13:12;;;;;;;11.07;3.13;;;9.70;99.90;;;;;;5070070;28;20059;-47
2022/05/29 05:15:38;;;;;;;10.85;3.50;;;9.80;99.90;;;;;;5070347;28;20036;-49
2022/05/29 05:18:04;;;;;;;17.35;3.80;;;9.90;99.90;;;;;;5069062;28;20043;-50
2022/05/29 05:20:30;;;;;;;12.88;3.38;;;9.90;99.90;;;;;;5070148;28;20047;-47
2022/05/29 05:22:57;;;;;;;9.77;3.50;;;10.10;99.90;;;;;;5070030;28;20425;-45
2022/05/29 05:25:23;;;;;;;12.25;3.25;;;10.00;99.90;;;;;;5070328;28;20514;-48
2022/05/29 05:27:49;;;;;;;11.95;3.25;;;9.90;99.90;;;;;;5070062;28;20041;-51
2022/05/29 05:30:14;;;;;;;12.32;3.25;;;10.00;99.90;;;;;;5070415;28;20498;-48
2022/05/29 05:32:40;;;;;;;11.60;3.10;;;10.00;99.90;;;;;;5070337;28;20036;-50
2022/05/29 05:35:07;;;;;;;8.95;2.45;;;10.10;99.90;;;;;;5049308;28;20085;-48
2022/05/29 05:37:37;;;;;;;11.73;2.28;;;10.00;99.90;;;;;;5069926;28;20435;-46
2022/05/29 05:40:06;;;;;;;14.93;3.22;;;9.90;99.90;;;;;;5066915;28;20039;-47
2022/05/29 05:42:32;;;;;;;9.10;2.20;;;10.20;99.90;;;;;;5070264;28;20522;-45
2022/05/29 05:44:57;;;;;;;10.80;2.50;;;10.10;99.90;;;;;;5051986;28;20163;-49
2022/05/29 05:47:24;;;;;;;9.75;2.20;;;10.20;99.90;;;;;;5069921;28;20044;-47
2022/05/29 05:49:50;;;;;;;11.27;2.30;;;10.20;99.90;;;;;;5071932;28;20041;-46
2022/05/29 05:52:17;;;;;;;10.80;2.08;;;10.10;99.90;;;;;;5055662;28;20032;-47
2022/05/29 05:54:43;;;;;;;13.82;2.53;;;10.30;99.90;;;;;;5072993;28;20036;-46
2022/05/29 05:57:09;;;;;;;10.13;2.22;;;10.40;99.90;;;;;;5071443;28;20032;-47
2022/05/29 05:59:36;;;;;;;9.75;1.85;;;10.40;99.90;;;;;;5073265;28;20048;-47
2022/05/29 06:02:02;;;;;;;10.95;2.08;;;10.40;99.90;;;;;;5073093;28;20028;-47
2022/05/29 06:04:27;;;;;;;9.23;2.00;;;10.40;99.90;;;;;;5073474;28;20097;-46
2022/05/29 06:06:54;;;;;;;8.52;1.95;;;10.60;99.90;;;;;;5072895;28;20492;-49
2022/05/29 06:09:21;;;;;;;5.95;1.83;;;10.60;99.90;;;;;;5073270;28;20041;-49
2022/05/29 06:11:47;;;;;;;8.50;2.58;;;10.70;99.90;;;;;;5073027;28;20114;-46
2022/05/29 06:14:13;;;;;;;9.00;2.00;;;10.80;99.90;;;;;;5073017;28;20091;-48
2022/05/29 06:16:39;;;;;;;11.43;2.05;;;10.80;99.90;;;;;;5072846;28;20040;-47
2022/05/29 06:19:06;;;;;;;8.98;2.08;;;10.90;99.90;;;;;;5072059;28;20383;-46
2022/05/29 06:21:35;;;;;;;8.85;2.33;;;10.90;99.90;;;;;;5072987;28;20360;-46
2022/05/29 06:24:01;;;;;;;10.02;2.20;;;11.00;99.90;;;;;;5054799;28;20124;-49
2022/05/29 06:26:27;;;;;;;12.05;2.45;;;11.00;99.90;;;;;;5070182;28;20048;-48
2022/05/29 06:28:53;;;;;;;11.60;2.22;;;11.10;99.90;;;;;;5072914;28;20044;-46
2022/05/29 06:31:19;;;;;;;9.68;1.90;;;11.10;99.90;;;;;;5072621;28;20056;-47
2022/05/29 06:33:44;;;;;;;8.88;2.05;;;11.20;99.90;;;;;;5072736;28;20044;-49
2022/05/29 06:36:23;;;;;;;10.18;2.20;;;11.40;99.90;;;;;;5072118;28;20039;-48
2022/05/29 06:38:50;;;;;;;10.02;2.40;;;11.40;99.90;;;;;;5072650;28;20036;-50
2022/05/29 06:41:19;;;;;;;14.18;2.55;;;11.50;99.90;;;;;;5073023;28;20068;-49
2022/05/29 06:43:44;;;;;;;11.20;2.45;;;11.40;99.90;;;;;;5054429;28;20059;-47
2022/05/29 06:46:11;;;;;;;11.52;2.17;;;11.50;99.90;;;;;;5072357;28;20539;-48
2022/05/29 06:48:38;;;;;;;11.93;2.08;;;11.60;99.90;;;;;;5071961;28;20043;-47
2022/05/29 06:51:06;;;;;;;8.60;2.38;;;11.50;99.90;;;;;;5072629;28;20047;-48
2022/05/29 06:53:32;;;;;;;8.52;2.00;;;11.70;99.90;;;;;;5072187;28;20401;-49
2022/05/29 06:55:57;;;;;;;8.35;1.98;;;11.70;99.90;;;;;;5054447;28;20143;-47
2022/05/29 06:58:23;;;;;;;11.13;2.17;;;11.70;99.90;;;;;;5072211;28;20430;-48
2022/05/29 07:09:04;;;;;;;10.93;2.20;;;11.50;99.90;;;;;;5071417;28;20041;-46
2022/05/29 07:11:35;;;;;;;10.88;2.17;;;11.50;99.90;;;;;;5052794;28;20486;-49
2022/05/29 07:14:04;;;;;;;12.02;3.05;;;11.40;99.90;;;;;;5070161;28;20474;-49
2022/05/29 07:16:31;;;;;;;8.27;2.00;;;11.50;99.90;;;;;;5070110;28;20024;-47
2022/05/29 07:18:57;;;;;;;13.05;2.20;;;11.50;99.90;;;;;;5067700;28;20103;-48
2022/05/29 07:21:23;;;;;;;10.75;2.00;;;11.50;99.90;;;;;;5070844;28;20056;-48
2022/05/29 07:23:49;;;;;;;14.23;2.10;;;11.50;99.90;;;;;;5071821;28;20033;-47
2022/05/29 07:26:15;;;;;;;11.82;2.03;;;11.60;99.90;;;;;;5062479;28;20064;-48
2022/05/29 07:28:40;;;;;;;11.98;1.98;;;11.60;99.90;;;;;;5062958;28;20044;-46
2022/05/29 07:31:06;;;;;;;14.70;2.47;;;11.60;99.90;;;;;;5044827;28;20763;-46
2022/05/29 07:33:32;;;;;;;12.02;1.95;;;11.70;99.90;;;;;;5062153;28;20068;-48
2022/05/29 07:35:59;;;;;;;10.82;2.20;;;11.80;99.90;;;;;;5060421;28;20114;-48
2022/05/29 07:38:26;;;;;;;10.90;2.05;;;11.80;99.90;;;;;;5053746;28;20040;-48
2022/05/29 07:40:52;;;;;;;10.38;2.13;;;11.90;99.90;;;;;;5062679;28;20040;-47
2022/05/29 07:43:18;;;;;;;16.13;2.80;;;12.00;99.90;;;;;;5056712;28;20025;-50
2022/05/29 07:45:49;;;;;;;11.13;1.70;;;12.00;99.90;;;;;;5062859;28;20032;-51
2022/05/29 07:48:16;;;;;;;13.40;2.20;;;12.20;99.90;;;;;;5061017;28;20409;-48
2022/05/29 07:50:42;;;;;;;13.48;1.85;;;12.10;99.90;;;;;;5062513;28;20048;-47
2022/05/29 07:53:08;;;;;;;8.95;1.80;;;12.10;99.90;;;;;;5062330;28;20032;-48
2022/05/29 07:55:38;;;;;;;10.48;2.42;;;12.10;99.90;;;;;;5055317;28;20075;-50
2022/05/29 07:58:08;;;;;;;12.57;2.00;;;12.00;99.90;;;;;;5058069;28;20040;-49
2022/05/29 08:00:34;;;;;;;9.38;1.63;;;12.00;99.90;;;;;;5055453;28;20029;-48
2022/05/29 08:03:01;;;;;;;11.30;2.10;;;11.90;99.90;;;;;;5061248;28;20033;-49
2022/05/29 08:05:29;;;;;;;8.63;1.40;;;11.80;99.90;;;;;;5059294;28;20084;-49
2022/05/29 08:07:55;;;;;;;11.32;1.75;;;11.70;99.90;;;;;;5053886;28;22998;-49
2022/05/29 08:10:22;;;;;;;9.73;1.70;;;11.70;99.90;;;;;;5044325;28;20036;-47
2022/05/29 08:12:48;;;;;;;12.65;2.10;;;11.80;99.90;;;;;;5055477;28;20125;-49
2022/05/29 08:15:14;;;;;;;9.60;1.42;;;11.70;99.90;;;;;;5059146;28;20040;-50
2022/05/29 08:17:40;;;;;;;10.13;1.65;;;11.90;99.90;;;;;;5059704;28;20479;-50
2022/05/29 08:20:08;;;;;;;10.95;1.88;;;12.00;99.90;;;;;;5057507;28;20036;-48
2022/05/29 08:22:34;;;;;;;12.32;1.92;;;12.00;99.90;;;;;;5058439;28;20179;-49
2022/05/29 08:30:37;;;;;;;12.27;1.65;;;12.20;99.90;;;;;;5061180;28;20039;-50
2022/05/29 08:33:05;;;;;;;8.60;1.57;;;12.20;99.90;;;;;;5062983;28;20135;-49
2022/05/29 08:35:34;;;;;;;8.00;1.55;;;12.30;99.90;;;;;;5062995;28;20309;-50
2022/05/29 08:38:02;;;;;;;11.88;1.60;;;12.30;99.90;;;;;;5061294;28;20050;-50
2022/05/29 08:40:30;;;;;;;9.93;2.00;;;12.30;99.90;;;;;;5061238;28;20434;-48
2022/05/29 08:42:57;;;;;;;11.63;1.58;;;12.40;99.90;;;;;;5061403;28;20033;-53
2022/05/29 08:45:23;;;;;;;12.73;2.08;;;12.50;99.90;;;;;;5062192;28;20032;-51
2022/05/29 08:47:50;;;;;;;7.43;1.30;;;12.50;99.90;;;;;;5062939;28;20032;-51
2022/05/29 08:50:28;;;;;;;9.35;1.27;;;12.60;99.90;;;;;;5061527;28;20047;-51
2022/05/29 08:52:53;;;;;;;5.30;1.30;;;12.50;99.90;;;;;;5059331;28;20434;-49
2022/05/29 08:55:30;;;;;;;6.55;1.35;;;12.70;99.90;;;;;;5058633;28;20048;-52
2022/05/29 08:58:27;;;;;;;9.50;1.60;;;12.80;99.90;;;;;;5060172;28;20037;-48
2022/05/29 09:01:21;;;;;;;5.00;1.05;;;13.00;99.90;;;;;;5056348;28;20399;-52
2022/05/29 09:04:02;;;;;;;7.40;1.15;;;13.10;99.90;;;;;;5061074;28;20036;-49
2022/05/29 09:06:45;;;;;;;5.53;1.35;;;13.10;99.90;;;;;;5061828;28;20037;-49
2022/05/29 09:09:26;;;;;;;5.18;1.20;;;13.20;99.90;;;;;;5061014;28;20195;-50
2022/05/29 09:12:03;;;;;;;9.50;1.30;;;13.30;99.90;;;;;;5061223;28;20052;-51
2022/05/29 09:14:31;;;;;;;4.53;1.10;;;13.50;99.90;;;;;;5064959;28;20052;-53
2022/05/29 09:17:02;;;;;;;7.72;1.20;;;13.50;99.90;;;;;;5067616;28;20398;-51
2022/05/29 09:19:37;;;;;;;7.82;1.73;;;13.30;99.90;;;;;;5068451;28;20033;-51
2022/05/29 09:22:14;;;;;;;5.53;1.00;;;13.40;99.90;;;;;;5069912;28;20046;-51
2022/05/29 09:25:05;;;;;;;6.93;1.20;;;13.40;99.90;;;;;;5074239;28;20036;-50
2022/05/29 09:27:32;;;;;;;5.40;1.27;;;13.50;99.90;;;;;;5055623;28;20479;-50
2022/05/29 09:29:58;;;;;;;6.32;1.25;;;13.60;99.90;;;;;;5072631;28;20471;-53
2022/05/29 09:32:32;;;;;;;7.15;1.45;;;13.90;99.90;;;;;;5072136;28;20078;-50
2022/05/29 09:35:22;;;;;;;7.10;1.25;;;14.00;99.90;;;;;;5072904;28;20119;-47
2022/05/29 09:38:05;;;;;;;6.45;1.30;;;14.20;99.90;;;;;;5072308;28;20037;-50
2022/05/29 09:40:33;;;;;;;6.57;1.27;;;14.00;99.90;;;;;;5074168;28;20033;-51
2022/05/29 09:43:23;;;;;;;7.35;1.10;;;14.10;99.90;;;;;;5073256;28;20409;-50
2022/05/29 09:45:50;;;;;;;5.10;0.90;;;14.40;99.90;;;;;;5071794;28;20032;-49
2022/05/29 09:51:24;;;;;;;7.10;1.30;;;14.10;99.90;;;;;;5070087;28;20090;-49
2022/05/29 09:53:58;;;;;;;4.50;1.15;;;14.20;99.90;;;;;;5067630;28;20036;-50
2022/05/29 09:56:30;;;;;;;4.80;1.00;;;14.30;99.90;;;;;;5068659;28;20094;-54
2022/05/29 09:59:04;;;;;;;8.25;0.93;;;14.40;99.90;;;;;;5071179;28;20108;-48
2022/05/29 10:02:03;;;;;;;7.57;1.30;;;14.20;99.90;;;;;;5069643;28;20119;-49
2022/05/29 10:04:37;;;;;;;7.78;1.08;;;13.90;99.90;;;;;;5069165;28;20495;-50
2022/05/29 10:07:27;;;;;;;5.72;1.10;;;13.90;99.90;;;;;;5067752;28;20032;-51
2022/05/29 10:10:01;;;;;;;6.00;1.60;;;13.80;99.90;;;;;;5067249;28;20045;-50
2022/05/29 10:12:37;;;;;;;;;;;13.80;99.90;;;;;;5068436;28;20056;-47
2022/05/29 10:15:03;;;;;;;7.13;1.20;;;13.70;99.90;;;;;;5068916;28;19935;-49
2022/05/29 10:17:29;;;;;;;8.45;1.42;;;13.70;99.90;;;;;;5069869;28;20105;-47
2022/05/29 10:19:55;;;;;;;7.10;1.13;;;13.50;99.90;;;;;;5053097;28;20044;-48
2022/05/29 10:22:31;;;;;;;8.07;1.15;;;13.60;99.90;;;;;;5069566;28;20032;-48
2022/05/29 10:24:58;;;;;;;7.38;1.08;;;13.60;99.90;;;;;;5072869;28;20040;-47
2022/05/29 10:27:29;;;;;;;4.72;0.98;;;13.70;99.90;;;;;;5073347;28;20849;-48
2022/05/29 10:29:59;;;;;;;5.88;0.90;;;13.60;99.90;;;;;;5072545;28;20033;-49
2022/05/29 10:32:28;;;;;;;6.40;1.05;;;13.50;99.90;;;;;;5072936;28;20036;-46
2022/05/29 10:35:28;;;;;;;7.88;0.90;;;13.50;99.90;;;;;;5066432;28;20407;-51
2022/05/29 10:37:54;;;;;;;7.28;1.45;;;13.70;99.90;;;;;;5070699;28;20047;-50
2022/05/29 10:40:31;;;;;;;3.03;0.75;;;13.70;99.90;;;;;;5071846;28;20032;-48
2022/05/29 10:43:03;;;;;;;4.28;0.93;;;14.10;99.90;;;;;;5071933;28;20051;-47
2022/05/29 10:45:47;;;;;;;6.57;1.10;;;14.00;99.90;;;;;;5072675;28;20044;-49
2022/05/29 10:48:42;;;;;;;6.00;0.90;;;13.80;99.90;;;;;;5073010;28;20040;-48
2022/05/29 10:51:33;;;;;;;4.80;0.98;;;13.70;99.90;;;;;;5072442;28;20278;-47
2022/05/29 10:54:14;;;;;;;7.13;1.20;;;13.50;99.90;;;;;;5057936;28;20049;-50
2022/05/29 10:56:58;;;;;;;3.90;0.85;;;13.70;99.90;;;;;;5065123;28;20429;-47
2022/05/29 10:59:36;;;;;;;;;;;13.60;99.90;;;;;;5070376;28;20089;-51
2022/05/29 11:05:23;;;;;;;6.35;0.98;;;13.50;99.90;;;;;;5072030;28;20044;-46
2022/05/29 11:08:20;;;;;;;5.50;1.10;;;13.10;99.90;;;;;;5053464;28;20048;-48
2022/05/29 11:10:54;;;;;;;6.15;1.50;;;13.00;99.90;;;;;;5072375;28;20053;-53
2022/05/29 11:13:30;;;;;;;;;;;12.70;99.90;;;;;;5072323;28;20437;-50
2022/05/29 11:16:21;;;;;;;9.13;1.38;;;12.40;99.90;;;;;;5072267;28;20360;-49
2022/05/29 11:19:08;;;;;;;7.05;1.10;;;12.50;99.90;;;;;;5072214;28;20554;-49
2022/05/29 11:21:52;;;;;;;11.13;1.40;;;12.50;99.90;;;;;;5071834;28;20044;-50
2022/05/29 11:24:49;;;;;;;8.95;1.45;;;12.60;99.90;;;;;;5053702;28;20395;-49
2022/05/29 11:27:41;;;;;;;7.82;1.15;;;12.70;99.90;;;;;;5072024;28;20089;-49
2022/05/29 11:30:10;;;;;;;9.43;1.50;;;12.90;99.90;;;;;;5071679;28;20040;-48
2022/05/29 11:32:35;;;;;;;7.97;1.40;;;13.10;99.90;;;;;;5070499;28;20044;-50
2022/05/29 11:35:15;;;;;;;6.20;1.20;;;13.10;99.90;;;;;;5071543;28;20032;-48
2022/05/29 11:37:50;;;;;;;6.18;1.27;;;13.40;99.90;;;;;;5071514;28;20040;-52
2022/05/29 11:40:30;;;;;;;7.90;1.20;;;13.50;99.90;;;;;;5071638;28;20032;-48
2022/05/29 11:43:10;;;;;;;5.28;1.10;;;13.80;99.90;;;;;;5071680;28;20051;-47
2022/05/29 11:51:36;;;;;;;7.80;1.10;;;13.60;99.90;;;;;;5071392;28;20059;-46
2022/05/29 11:54:17;;;;;;;7.65;1.10;;;13.60;99.90;;;;;;5071041;28;20025;-51
2022/05/29 11:57:00;;;;;;;5.50;0.90;;;13.70;99.90;;;;;;5071629;28;20422;-50
2022/05/29 11:59:34;;;;;;;4.53;0.70;;;13.70;99.90;;;;;;5071163;28;20044;-51
2022/05/29 12:02:40;;;;;;;7.88;0.88;;;13.70;99.90;;;;;;5071454;28;20041;-49
2022/05/29 12:05:23;;;;;;;6.15;0.90;;;13.80;99.90;;;;;;5071202;28;20044;-47
2022/05/29 12:08:03;;;;;;;4.72;0.80;;;14.00;99.90;;;;;;5070897;28;20131;-50
2022/05/29 12:10:40;;;;;;;2.63;1.10;;;14.00;99.90;;;;;;5070717;28;20059;-47
2022/05/29 12:13:12;;;;;;;4.43;0.65;;;14.30;99.90;;;;;;5070963;28;20076;-50
2022/05/29 12:15:38;;;;;;;3.13;0.60;;;14.50;99.90;;;;;;5071062;28;20506;-50
2022/05/29 12:18:09;;;;;;;4.43;0.63;;;14.50;99.90;;;;;;5071107;28;20064;-50
2022/05/29 12:20:52;;;;;;;5.10;0.93;;;14.60;99.90;;;;;;5071034;28;20443;-50
2022/05/29 12:23:34;;;;;;;3.78;0.75;;;14.80;99.90;;;;;;5071153;28;20060;-46
2022/05/29 12:26:25;;;;;;;5.53;0.70;;;14.90;99.90;;;;;;5071164;28;20544;-52
2022/05/29 12:29:03;;;;;;;3.25;0.60;;;14.80;99.90;;;;;;5071143;28;20032;-50
2022/05/29 12:31:43;;;;;;;3.33;0.63;;;14.50;99.90;;;;;;5070968;28;20103;-50
2022/05/29 12:34:27;;;;;;;5.47;0.80;;;14.40;99.90;;;;;;5070230;28;20365;-48
2022/05/29 12:37:10;;;;;;;6.40;0.90;;;14.20;99.90;;;;;;5070017;28;20036;-49
2022/05/29 12:39:44;;;;;;;5.07;1.00;;;13.90;99.90;;;;;;5071045;28;20075;-48
2022/05/29 12:42:27;;;;;;;3.83;0.93;;;13.90;99.90;;;;;;5070849;28;20063;-50
2022/05/29 12:45:12;;;;;;;4.55;0.93;;;13.70;99.90;;;;;;5070937;28;20071;-47
2022/05/29 12:48:15;;;;;;;4.97;0.90;;;13.90;99.90;;;;;;5070905;28;20042;-48
2022/05/29 12:51:09;;;;;;;5.00;0.90;;;14.00;99.90;;;;;;5070601;28;20509;-51
2022/05/29 12:53:54;;;;;;;6.75;1.20;;;13.80;99.90;;;;;;5069693;28;20055;-47
2022/05/29 12:56:34;;;;;;;12.13;1.50;;;13.70;99.90;;;;;;5070759;28;20045;-50
2022/05/29 12:59:09;;;;;;;5.85;0.93;;;13.60;99.90;;;;;;5073488;28;20029;-47
2022/05/29 13:01:44;;;;;;;6.55;1.00;;;13.40;99.90;;;;;;5074835;28;20032;-49
2022/05/29 13:04:22;;;;;;;3.97;0.88;;;13.50;99.90;;;;;;5074798;28;20119;-50
2022/05/29 13:07:26;;;;;;;4.07;0.90;;;13.50;99.90;;;;;;5055973;28;20052;-49
2022/05/29 13:10:13;;;;;;;4.90;1.10;;;13.60;99.90;;;;;;5038715;28;20391;-50
2022/05/29 13:12:44;;;;;;;3.47;0.82;;;13.60;99.90;;;;;;5074199;28;20120;-51
2022/05/29 13:15:28;;;;;;;7.75;1.17;;;13.60;99.90;;;;;;5074223;28;20045;-48
2022/05/29 13:18:04;;;;;;;3.90;0.80;;;13.80;99.90;;;;;;5056475;28;20036;-46
2022/05/29 13:20:30;;;;;;;5.53;1.10;;;14.00;99.90;;;;;;5074151;28;20032;-47
2022/05/29 13:22:59;;;;;;;5.28;1.02;;;13.90;99.90;;;;;;5074266;28;20079;-46
2022/05/29 13:25:35;;;;;;;8.88;1.25;;;14.20;99.90;;;;;;5073936;28;20043;-48
2022/05/29 13:28:47;;;;;;;5.25;1.00;;;14.50;99.90;;;;;;5074265;28;20036;-48
2022/05/29 13:31:15;;;;;;;3.75;0.80;;;14.40;99.90;;;;;;5073849;28;20043;-49
2022/05/29 13:33:48;;;;;;;4.47;1.00;;;14.30;99.90;;;;;;5073573;28;20395;-50
2022/05/29 13:36:47;;;;;;;6.90;1.17;;;14.40;99.90;;;;;;5073751;28;20045;-47
2022/05/29 13:39:22;;;;;;;5.20;1.02;;;14.20;99.90;;;;;;5074253;28;20528;-47
2022/05/29 13:42:21;;;;;;;7.47;1.23;;;13.90;99.90;;;;;;5073595;28;20036;-48
2022/05/29 13:44:47;;;;;;;8.00;1.05;;;13.60;99.90;;;;;;5074004;28;20053;-47
2022/05/29 13:47:19;;;;;;;8.23;1.40;;;13.40;99.90;;;;;;5073323;28;20043;-52
2022/05/29 13:49:48;;;;;;;7.65;1.38;;;13.20;99.90;;;;;;5073637;28;20106;-48
2022/05/29 13:52:22;;;;;;;7.97;1.15;;;13.00;99.90;;;;;;5073481;28;20086;-47